Rehoboth, Massachusetts
Current Conditions -  °F | °C
As of 4:51 PM on Sunday 23 Nov 2014 (Local Time) from KPVD Reporting Station
Broken Clouds Broken Clouds  
Wind Chill: 50°   Ceiling: 25000
Heat Index: 50°   Visibility: 10mi
Dew Point: 31°   Wind: 8mph
Humidity: 48%   Direction: 230°SW
Pressure: 30.14"   Gusts: NA
Location:  41.84°N, 71.25°W
Report Text: KPVD 232151Z 23007KT 10SM FEW160 BKN250 BKN300 10/M01 A3014 RMK AO2 SLP207 T01001006
Loading
Personal Weather Stations






























Interactive Weather Map New forecast layout! Learn more

10-Day Weather Forecast

Advertisements
Track Severe Weather on mobile